createdAt,value
2023-04-15T00:01:37.400Z,52.9
2023-04-15T00:07:30.343Z,52.8
2023-04-15T00:13:05.652Z,52.8
2023-04-15T00:18:58.168Z,52.8
2023-04-15T00:24:49.744Z,52.7
2023-04-15T00:30:40.774Z,52.6
2023-04-15T00:36:32.940Z,52.6
2023-04-15T00:42:24.303Z,52.6
2023-04-15T00:48:00.906Z,52.5
2023-04-15T00:53:53.196Z,52.4
2023-04-15T00:59:44.573Z,52.4
2023-04-15T01:11:13.929Z,52.3
2023-04-15T01:17:05.247Z,52.3
2023-04-15T01:22:57.530Z,52.3
2023-04-15T01:28:49.347Z,52.2
2023-04-15T01:34:41.380Z,52.1
2023-04-15T01:40:32.239Z,52.1
2023-04-15T01:46:24.613Z,52.1
2023-04-15T01:52:16.040Z,52
2023-04-15T02:09:20.948Z,51.9
2023-04-15T02:15:11.969Z,51.8
2023-04-15T02:21:04.238Z,51.8
2023-04-15T02:26:27.457Z,51.8
2023-04-15T02:32:18.951Z,51.7
2023-04-15T02:38:10.755Z,51.6
2023-04-15T02:44:02.257Z,51.6
2023-04-15T02:49:53.978Z,51.6
2023-04-15T02:55:46.012Z,51.5
2023-04-15T03:01:37.466Z,51.4
2023-04-15T03:07:30.204Z,51.4
2023-04-15T03:13:21.733Z,51.4
2023-04-15T03:19:13.161Z,51.3
2023-04-15T03:25:04.353Z,51.3
2023-04-15T03:30:56.304Z,51.3
2023-04-15T03:36:32.614Z,51.2
2023-04-15T03:42:09.171Z,51.1
2023-04-15T03:48:16.361Z,51.1
2023-04-15T03:54:07.947Z,51.1
2023-04-15T03:59:58.802Z,51
2023-04-15T04:05:52.375Z,50.9
2023-04-15T04:11:44.018Z,50.9
2023-04-15T04:17:35.220Z,50.9
2023-04-15T04:23:11.548Z,50.8
2023-04-15T04:28:47.638Z,50.8
2023-04-15T04:34:39.589Z,50.8
2023-04-15T04:40:31.538Z,50.6
2023-04-15T04:46:23.390Z,50.6
2023-04-15T04:52:14.685Z,50.6
2023-04-15T04:58:06.410Z,50.6
2023-04-15T05:03:59.382Z,50.5
2023-04-15T05:09:35.525Z,50.4
2023-04-15T05:15:29.274Z,50.4
2023-04-15T05:21:21.505Z,50.4
2023-04-15T05:27:15.560Z,50.3
2023-04-15T05:33:07.430Z,50.3
2023-04-15T05:38:58.985Z,50.2
2023-04-15T05:44:50.842Z,50.2
2023-04-15T05:50:43.671Z,50.1
2023-04-15T05:56:37.347Z,50.1
2023-04-15T06:02:29.071Z,50
2023-04-15T06:07:51.040Z,50
2023-04-15T06:13:27.563Z,49.9
2023-04-15T06:19:04.326Z,49.9
2023-04-15T06:24:56.734Z,49.8
2023-04-15T06:30:17.639Z,49.8
2023-04-15T06:36:10.052Z,49.7
2023-04-15T06:41:47.897Z,49.7
2023-04-15T06:47:24.649Z,49.6
2023-04-15T06:53:16.031Z,49.6
2023-04-15T06:59:07.479Z,49.6
2023-04-15T07:04:43.794Z,49.5
2023-04-15T07:10:33.927Z,49.4
2023-04-15T07:16:27.822Z,49.4
2023-04-15T07:22:19.752Z,49.4
2023-04-15T07:28:11.409Z,49.3
2023-04-15T07:34:04.306Z,49.3
2023-04-15T07:39:54.578Z,49.2
2023-04-15T07:45:47.889Z,49.1
2023-04-15T07:51:42.507Z,49.1
2023-04-15T07:57:33.721Z,49.1
2023-04-15T08:03:27.254Z,49
2023-04-15T08:09:05.385Z,49
2023-04-15T08:14:41.533Z,48.9
2023-04-15T08:20:32.244Z,48.9
2023-04-15T08:26:31.107Z,48.8
2023-04-15T08:32:23.298Z,48.8
2023-04-15T08:37:59.932Z,48.8
2023-04-15T08:43:36.173Z,48.6
2023-04-15T08:49:12.849Z,48.8
2023-04-15T08:55:05.130Z,49.2
2023-04-15T09:00:56.754Z,49.8
2023-04-15T09:06:49.061Z,50.3
2023-04-15T09:12:43.051Z,50.8
2023-04-15T09:18:35.164Z,51.1
2023-04-15T09:24:25.516Z,51.5
2023-04-15T09:30:19.468Z,52
2023-04-15T09:36:11.806Z,52.5
2023-04-15T09:42:17.333Z,52.8
2023-04-15T09:47:38.939Z,53
2023-04-15T09:53:46.224Z,53.2
2023-04-15T09:59:23.223Z,53.3
2023-04-15T10:05:16.376Z,53.4
2023-04-15T10:10:52.541Z,53.4
2023-04-15T10:16:28.447Z,53.4
2023-04-15T10:21:48.846Z,53.3
2023-04-15T10:27:11.743Z,53.6
2023-04-15T10:33:03.419Z,53.6
2023-04-15T10:38:54.154Z,53.6
2023-04-15T10:44:30.330Z,53.9
2023-04-15T10:50:06.571Z,54.6
2023-04-15T10:55:57.416Z,54.9
2023-04-15T11:01:32.996Z,55.6
2023-04-15T11:07:26.680Z,56
2023-04-15T11:13:18.205Z,56.4
2023-04-15T11:19:10.448Z,56.8
2023-04-15T11:25:15.831Z,57.3
2023-04-15T11:30:52.357Z,57.6
2023-04-15T11:36:44.427Z,57.9
2023-04-15T11:42:46.687Z,58.2
2023-04-15T11:53:30.115Z,58.8
2023-04-15T11:59:06.281Z,59
2023-04-15T12:04:37.276Z,59.2
2023-04-15T12:10:28.535Z,59.4
2023-04-15T12:16:19.770Z,59.7
2023-04-15T12:22:37.830Z,59.8
2023-04-15T12:28:28.953Z,59.8
2023-04-15T12:34:07.407Z,59.8
2023-04-15T12:39:45.521Z,59.8
2023-04-15T12:45:21.022Z,59.7
2023-04-15T12:51:12.398Z,59.7
2023-04-15T12:56:48.140Z,59.6
2023-04-15T13:02:26.324Z,59.6
2023-04-15T13:08:19.673Z,59.6
2023-04-15T13:14:16.621Z,59.6
2023-04-15T13:20:08.227Z,59.6
2023-04-15T13:25:59.303Z,59.6
2023-04-15T13:31:52.058Z,59.6
2023-04-15T13:37:43.704Z,59.5
2023-04-15T13:43:36.998Z,59.5
2023-04-15T13:49:28.492Z,59.5
2023-04-15T13:55:51.468Z,59.4
2023-04-15T14:01:28.156Z,59.4
2023-04-15T14:07:21.840Z,59.4
2023-04-15T14:13:15.340Z,59.3
2023-04-15T14:19:08.489Z,59.3
2023-04-15T14:25:02.886Z,59.3
2023-04-15T14:31:07.737Z,59.2
2023-04-15T14:36:59.760Z,59.1
2023-04-15T14:42:50.707Z,59.1
2023-04-15T14:48:42.740Z,59
2023-04-15T14:54:34.418Z,58.9
2023-04-15T15:00:25.844Z,58.9
2023-04-15T15:06:36.145Z,58.9
2023-04-15T15:12:49.627Z,58.8
2023-04-15T15:18:53.323Z,58.8
2023-04-15T15:24:44.686Z,58.7
2023-04-15T15:30:36.645Z,58.7
2023-04-15T15:36:28.878Z,58.6
2023-04-15T15:47:58.900Z,58.5
2023-04-15T15:53:20.197Z,58.4
2023-04-15T15:59:11.894Z,58.4
2023-04-15T16:05:42.912Z,58.4
2023-04-15T16:11:37.436Z,58.3
2023-04-15T16:17:30.206Z,58.3
2023-04-15T16:23:38.968Z,58.3
2023-04-15T16:29:49.907Z,58.2
2023-04-15T16:35:41.430Z,58.1
2023-04-15T16:41:33.977Z,58.1
2023-04-15T16:47:25.091Z,58.1
2023-04-15T16:53:17.909Z,58
2023-04-15T16:59:41.101Z,57.9
2023-04-15T17:05:35.500Z,57.9
2023-04-15T17:11:26.797Z,57.8
2023-04-15T17:17:19.127Z,57.8
2023-04-15T17:28:30.959Z,57.7
2023-04-15T17:35:23.628Z,57.6
2023-04-15T17:41:15.309Z,57.6
2023-04-15T17:47:06.860Z,57.6
2023-04-15T17:52:59.571Z,57.5
2023-04-15T17:58:51.951Z,57.4
2023-04-15T18:04:45.985Z,57.4
2023-04-15T18:10:38.190Z,57.3
2023-04-15T18:16:47.430Z,57.3
2023-04-15T18:22:39.710Z,57.3
2023-04-15T18:28:31.762Z,57.2
2023-04-15T18:34:24.278Z,57.1
2023-04-15T18:40:02.921Z,57.1
2023-04-15T18:45:40.484Z,57
2023-04-15T18:51:32.697Z,56.9
2023-04-15T18:57:25.889Z,56.9
2023-04-15T19:04:14.075Z,56.9
2023-04-15T19:10:06.137Z,56.8
2023-04-15T19:15:57.659Z,56.8
2023-04-15T19:21:50.468Z,56.8
2023-04-15T19:27:42.389Z,56.7
2023-04-15T19:33:36.619Z,56.6
2023-04-15T19:39:12.880Z,56.6
2023-04-15T19:44:48.972Z,56.6
2023-04-15T19:50:25.459Z,56.5
2023-04-15T19:56:01.505Z,56.4
2023-04-15T20:01:52.819Z,56.4
2023-04-15T20:07:45.995Z,56.3
2023-04-15T20:14:31.086Z,56.2
2023-04-15T20:20:22.935Z,56.1
2023-04-15T20:26:14.021Z,56
2023-04-15T20:32:05.403Z,56
2023-04-15T20:37:56.956Z,55.9
2023-04-15T20:43:48.866Z,55.9
2023-04-15T20:49:52.877Z,55.8
2023-04-15T20:55:47.078Z,55.8
2023-04-15T21:01:38.412Z,55.7
2023-04-15T21:07:31.603Z,55.6
2023-04-15T21:13:43.774Z,55.6
2023-04-15T21:19:34.996Z,55.5
2023-04-15T21:25:13.611Z,55.4
2023-04-15T21:31:04.558Z,55.4
2023-04-15T21:36:55.864Z,55.3
2023-04-15T21:42:32.539Z,55.3
2023-04-15T21:49:12.335Z,55.3
2023-04-15T21:55:03.649Z,55.2
2023-04-15T22:00:57.197Z,55.1
2023-04-15T22:06:50.771Z,55.1
2023-04-15T22:12:54.231Z,55
2023-04-15T22:18:46.066Z,54.9
2023-04-15T22:25:28.434Z,54.9
2023-04-15T22:31:19.521Z,54.8
2023-04-15T22:37:11.418Z,54.8
2023-04-15T22:43:03.825Z,54.7
2023-04-15T22:48:40.514Z,54.7
2023-04-15T22:54:47.776Z,54.6
2023-04-15T23:00:24.210Z,54.6
2023-04-15T23:06:51.413Z,54.5
2023-04-15T23:12:27.041Z,54.4
2023-04-15T23:18:19.092Z,54.4
2023-04-15T23:24:10.161Z,54.3
2023-04-15T23:30:01.489Z,54.3
2023-04-15T23:35:53.937Z,54.3
2023-04-15T23:41:45.703Z,54.2
2023-04-15T23:47:21.332Z,54.1
2023-04-15T23:53:15.935Z,54.1
2023-04-15T23:59:07.681Z,54
